sensor_id;sensor_type;location;lat;lon;timestamp;pressure;altitude;pressure_sealevel;temperature;humidity
23867;BME280;12114;53.404;-1.502;2024-02-15T00:02:16;100142.75;;;13.68;98.22
23867;BME280;12114;53.404;-1.502;2024-02-15T00:05:00;100133.13;;;13.62;99.75
23867;BME280;12114;53.404;-1.502;2024-02-15T00:07:45;100138.75;;;13.65;100.00
23867;BME280;12114;53.404;-1.502;2024-02-15T00:10:32;100148.63;;;13.56;100.00
23867;BME280;12114;53.404;-1.502;2024-02-15T00:13:16;100153.06;;;13.60;100.00
23867;BME280;12114;53.404;-1.502;2024-02-15T00:16:00;100149.88;;;13.58;100.00
23867;BME280;12114;53.404;-1.502;2024-02-15T00:18:44;100162.22;;;13.57;100.00
23867;BME280;12114;53.404;-1.502;2024-02-15T00:21:28;100152.25;;;13.60;100.00
23867;BME280;12114;53.404;-1.502;2024-02-15T00:24:12;100147.84;;;13.59;100.00
23867;BME280;12114;53.404;-1.502;2024-02-15T00:26:58;100141.88;;;13.57;100.00
23867;BME280;12114;53.404;-1.502;2024-02-15T00:29:42;100141.88;;;13.57;100.00
23867;BME280;12114;53.404;-1.502;2024-02-15T00:32:27;100141.03;;;13.53;100.00
23867;BME280;12114;53.404;-1.502;2024-02-15T00:35:11;100138.66;;;13.55;100.00
23867;BME280;12114;53.404;-1.502;2024-02-15T00:37:54;100139.88;;;13.57;100.00
23867;BME280;12114;53.404;-1.502;2024-02-15T00:40:38;100126.72;;;13.58;100.00
23867;BME280;12114;53.404;-1.502;2024-02-15T00:43:23;100124.72;;;13.55;100.00
23867;BME280;12114;53.404;-1.502;2024-02-15T00:46:07;100130.28;;;13.55;100.00
23867;BME280;12114;53.404;-1.502;2024-02-15T00:48:51;100125.13;;;13.57;100.00
23867;BME280;12114;53.404;-1.502;2024-02-15T00:51:36;100104.81;;;13.60;100.00
23867;BME280;12114;53.404;-1.502;2024-02-15T00:54:20;100121.97;;;13.58;100.00
23867;BME280;12114;53.404;-1.502;2024-02-15T00:57:04;100100.41;;;13.59;100.00
23867;BME280;12114;53.404;-1.502;2024-02-15T00:59:48;100091.63;;;13.57;100.00
23867;BME280;12114;53.404;-1.502;2024-02-15T01:02:35;100077.63;;;13.53;100.00
23867;BME280;12114;53.404;-1.502;2024-02-15T01:05:22;100094.38;;;13.53;100.00
23867;BME280;12114;53.404;-1.502;2024-02-15T01:08:07;100101.56;;;13.54;100.00
23867;BME280;12114;53.404;-1.502;2024-02-15T01:10:52;100115.13;;;13.56;100.00
23867;BME280;12114;53.404;-1.502;2024-02-15T01:13:37;100117.91;;;13.52;100.00
23867;BME280;12114;53.404;-1.502;2024-02-15T01:16:21;100121.47;;;13.53;100.00
23867;BME280;12114;53.404;-1.502;2024-02-15T01:19:05;100123.50;;;13.52;100.00
23867;BME280;12114;53.404;-1.502;2024-02-15T01:21:49;100122.69;;;13.52;100.00
23867;BME280;12114;53.404;-1.502;2024-02-15T01:24:33;100132.25;;;13.51;100.00
23867;BME280;12114;53.404;-1.502;2024-02-15T01:27:21;100130.63;;;13.50;100.00
23867;BME280;12114;53.404;-1.502;2024-02-15T01:30:06;100124.69;;;13.51;100.00
23867;BME280;12114;53.404;-1.502;2024-02-15T01:32:52;100119.88;;;13.48;100.00
23867;BME280;12114;53.404;-1.502;2024-02-15T01:35:36;100126.22;;;13.45;100.00
23867;BME280;12114;53.404;-1.502;2024-02-15T01:38:20;100125.44;;;13.48;100.00
23867;BME280;12114;53.404;-1.502;2024-02-15T01:41:04;100131.06;;;13.52;100.00
23867;BME280;12114;53.404;-1.502;2024-02-15T01:43:48;100130.66;;;13.53;100.00
23867;BME280;12114;53.404;-1.502;2024-02-15T01:46:34;100121.13;;;13.54;100.00
23867;BME280;12114;53.404;-1.502;2024-02-15T01:49:19;100123.50;;;13.56;100.00
23867;BME280;12114;53.404;-1.502;2024-02-15T01:52:06;100121.97;;;13.62;100.00
23867;BME280;12114;53.404;-1.502;2024-02-15T01:54:52;100123.16;;;13.61;100.00
23867;BME280;12114;53.404;-1.502;2024-02-15T01:57:38;100129.94;;;13.60;100.00
23867;BME280;12114;53.404;-1.502;2024-02-15T02:00:23;100131.13;;;13.62;100.00
23867;BME280;12114;53.404;-1.502;2024-02-15T02:03:08;100131.16;;;13.66;100.00
23867;BME280;12114;53.404;-1.502;2024-02-15T02:05:55;100129.19;;;13.66;100.00
23867;BME280;12114;53.404;-1.502;2024-02-15T02:08:39;100126.78;;;13.65;100.00
23867;BME280;12114;53.404;-1.502;2024-02-15T02:11:24;100124.00;;;13.68;100.00
23867;BME280;12114;53.404;-1.502;2024-02-15T02:14:08;100131.59;;;13.68;100.00
23867;BME280;12114;53.404;-1.502;2024-02-15T02:16:52;100135.97;;;13.69;100.00
23867;BME280;12114;53.404;-1.502;2024-02-15T02:19:37;100134.38;;;13.68;100.00
23867;BME280;12114;53.404;-1.502;2024-02-15T02:22:22;100132.38;;;13.68;100.00
23867;BME280;12114;53.404;-1.502;2024-02-15T02:25:08;100132.03;;;13.77;100.00
23867;BME280;12114;53.404;-1.502;2024-02-15T02:27:53;100127.69;;;13.80;100.00
23867;BME280;12114;53.404;-1.502;2024-02-15T02:30:37;100127.25;;;13.74;100.00
23867;BME280;12114;53.404;-1.502;2024-02-15T02:33:25;100128.44;;;13.73;100.00
23867;BME280;12114;53.404;-1.502;2024-02-15T02:36:15;100115.34;;;13.84;100.00
23867;BME280;12114;53.404;-1.502;2024-02-15T02:39:00;100097.31;;;13.71;100.00
23867;BME280;12114;53.404;-1.502;2024-02-15T02:41:44;100084.16;;;13.72;100.00
23867;BME280;12114;53.404;-1.502;2024-02-15T02:44:28;100096.13;;;13.72;100.00
23867;BME280;12114;53.404;-1.502;2024-02-15T02:47:13;100078.19;;;13.73;100.00
23867;BME280;12114;53.404;-1.502;2024-02-15T02:49:57;100071.78;;;13.73;100.00
23867;BME280;12114;53.404;-1.502;2024-02-15T02:52:41;100065.81;;;13.71;100.00
23867;BME280;12114;53.404;-1.502;2024-02-15T02:55:25;100063.81;;;13.67;100.00
23867;BME280;12114;53.404;-1.502;2024-02-15T02:58:11;100069.78;;;13.69;100.00
23867;BME280;12114;53.404;-1.502;2024-02-15T03:00:55;100059.81;;;13.72;100.00
23867;BME280;12114;53.404;-1.502;2024-02-15T03:03:40;100055.03;;;13.69;100.00
23867;BME280;12114;53.404;-1.502;2024-02-15T03:06:24;100052.59;;;13.64;100.00
23867;BME280;12114;53.404;-1.502;2024-02-15T03:09:10;100049.03;;;13.67;100.00
23867;BME280;12114;53.404;-1.502;2024-02-15T03:11:55;100047.03;;;13.64;100.00
23867;BME280;12114;53.404;-1.502;2024-02-15T03:14:41;100047.38;;;13.62;100.00
23867;BME280;12114;53.404;-1.502;2024-02-15T03:17:24;100046.59;;;13.62;100.00
23867;BME280;12114;53.404;-1.502;2024-02-15T03:20:11;100045.44;;;13.66;100.00
23867;BME280;12114;53.404;-1.502;2024-02-15T03:22:57;100049.00;;;13.63;100.00
23867;BME280;12114;53.404;-1.502;2024-02-15T03:25:41;100046.59;;;13.58;100.00
23867;BME280;12114;53.404;-1.502;2024-02-15T03:28:25;100051.75;;;13.60;100.00
23867;BME280;12114;53.404;-1.502;2024-02-15T03:31:10;100038.19;;;13.55;100.00
23867;BME280;12114;53.404;-1.502;2024-02-15T03:33:55;100044.16;;;13.57;100.00
23867;BME280;12114;53.404;-1.502;2024-02-15T03:36:39;100048.16;;;13.59;100.00
23867;BME280;12114;53.404;-1.502;2024-02-15T03:39:23;100052.94;;;13.59;100.00
23867;BME280;12114;53.404;-1.502;2024-02-15T03:42:07;100048.56;;;13.58;100.00
23867;BME280;12114;53.404;-1.502;2024-02-15T03:44:51;100049.78;;;13.60;100.00
23867;BME280;12114;53.404;-1.502;2024-02-15T03:47:38;100046.59;;;13.58;100.00
23867;BME280;12114;53.404;-1.502;2024-02-15T03:50:22;100050.97;;;13.59;100.00
23867;BME280;12114;53.404;-1.502;2024-02-15T03:53:09;100042.63;;;13.66;100.00
23867;BME280;12114;53.404;-1.502;2024-02-15T03:55:55;100048.97;;;13.60;100.00
23867;BME280;12114;53.404;-1.502;2024-02-15T03:58:42;100049.81;;;13.64;100.00
23867;BME280;12114;53.404;-1.502;2024-02-15T04:01:26;100049.41;;;13.65;100.00
23867;BME280;12114;53.404;-1.502;2024-02-15T04:04:11;100035.06;;;13.67;100.00
23867;BME280;12114;53.404;-1.502;2024-02-15T04:06:57;100036.25;;;13.66;100.00
23867;BME280;12114;53.404;-1.502;2024-02-15T04:09:42;100035.44;;;13.65;100.00
23867;BME280;12114;53.404;-1.502;2024-02-15T04:12:26;100035.41;;;13.62;100.00
23867;BME280;12114;53.404;-1.502;2024-02-15T04:15:10;100029.84;;;13.58;100.00
23867;BME280;12114;53.404;-1.502;2024-02-15T04:18:00;100026.25;;;13.58;100.00
23867;BME280;12114;53.404;-1.502;2024-02-15T04:20:44;100019.03;;;13.57;100.00
23867;BME280;12114;53.404;-1.502;2024-02-15T04:23:30;100019.84;;;13.57;100.00
23867;BME280;12114;53.404;-1.502;2024-02-15T04:26:14;100009.06;;;13.56;100.00
23867;BME280;12114;53.404;-1.502;2024-02-15T04:28:58;100023.00;;;13.56;100.00
23867;BME280;12114;53.404;-1.502;2024-02-15T04:31:42;100016.66;;;13.55;100.00
23867;BME280;12114;53.404;-1.502;2024-02-15T04:34:26;100008.28;;;13.55;100.00
23867;BME280;12114;53.404;-1.502;2024-02-15T04:37:10;100017.84;;;13.54;100.00
23867;BME280;12114;53.404;-1.502;2024-02-15T04:39:55;100018.22;;;13.53;100.00
23867;BME280;12114;53.404;-1.502;2024-02-15T04:42:40;100013.84;;;13.52;100.00
23867;BME280;12114;53.404;-1.502;2024-02-15T04:45:28;100013.44;;;13.53;100.00
23867;BME280;12114;53.404;-1.502;2024-02-15T04:48:14;100021.81;;;13.53;100.00
23867;BME280;12114;53.404;-1.502;2024-02-15T04:50:58;100018.22;;;13.53;100.00
23867;BME280;12114;53.404;-1.502;2024-02-15T04:53:43;100020.63;;;13.54;100.00
23867;BME280;12114;53.404;-1.502;2024-02-15T04:56:30;100017.03;;;13.54;100.00
23867;BME280;12114;53.404;-1.502;2024-02-15T04:59:17;100025.03;;;13.55;100.00
23867;BME280;12114;53.404;-1.502;2024-02-15T05:02:01;100019.03;;;13.57;100.00
23867;BME280;12114;53.404;-1.502;2024-02-15T05:04:45;100005.91;;;13.57;100.00
23867;BME280;12114;53.404;-1.502;2024-02-15T05:07:29;100018.25;;;13.56;100.00
23867;BME280;12114;53.404;-1.502;2024-02-15T05:10:13;100011.88;;;13.59;100.00
23867;BME280;12114;53.404;-1.502;2024-02-15T05:12:58;99996.75;;;13.60;100.00
23867;BME280;12114;53.404;-1.502;2024-02-15T05:15:45;99991.97;;;13.61;100.00
23867;BME280;12114;53.404;-1.502;2024-02-15T05:18:28;99995.13;;;13.59;100.00
23867;BME280;12114;53.404;-1.502;2024-02-15T05:21:14;99985.97;;;13.62;100.00
23867;BME280;12114;53.404;-1.502;2024-02-15T05:23:59;99985.59;;;13.64;100.00
23867;BME280;12114;53.404;-1.502;2024-02-15T05:26:44;99971.66;;;13.67;100.00
23867;BME280;12114;53.404;-1.502;2024-02-15T05:29:31;99976.81;;;13.65;100.00
23867;BME280;12114;53.404;-1.502;2024-02-15T05:32:20;99974.44;;;13.64;100.00
23867;BME280;12114;53.404;-1.502;2024-02-15T05:35:04;99984.38;;;13.65;100.00
23867;BME280;12114;53.404;-1.502;2024-02-15T05:37:48;99973.63;;;13.63;100.00
23867;BME280;12114;53.404;-1.502;2024-02-15T05:40:32;99984.41;;;13.68;100.00
23867;BME280;12114;53.404;-1.502;2024-02-15T05:43:16;99995.59;;;13.68;100.00
23867;BME280;12114;53.404;-1.502;2024-02-15T05:46:01;99984.81;;;13.67;100.00
23867;BME280;12114;53.404;-1.502;2024-02-15T05:48:45;99974.06;;;13.69;100.00
23867;BME280;12114;53.404;-1.502;2024-02-15T05:51:29;99974.06;;;13.69;100.00
23867;BME280;12114;53.404;-1.502;2024-02-15T05:54:15;99967.63;;;13.65;100.00
23867;BME280;12114;53.404;-1.502;2024-02-15T05:56:59;99973.69;;;13.71;100.00
23867;BME280;12114;53.404;-1.502;2024-02-15T05:59:44;99970.09;;;13.70;100.00
23867;BME280;12114;53.404;-1.502;2024-02-15T06:02:30;99959.72;;;13.78;100.00
23867;BME280;12114;53.404;-1.502;2024-02-15T06:05:14;99970.84;;;13.63;100.00
23867;BME280;12114;53.404;-1.502;2024-02-15T06:08:00;99958.06;;;13.62;100.00
23867;BME280;12114;53.404;-1.502;2024-02-15T06:10:45;99959.28;;;13.65;100.00
23867;BME280;12114;53.404;-1.502;2024-02-15T06:13:31;99955.31;;;13.69;100.00
23867;BME280;12114;53.404;-1.502;2024-02-15T06:16:15;99961.31;;;13.72;100.00
23867;BME280;12114;53.404;-1.502;2024-02-15T06:18:59;99953.69;;;13.68;100.00
23867;BME280;12114;53.404;-1.502;2024-02-15T06:21:43;99960.53;;;13.75;100.00
23867;BME280;12114;53.404;-1.502;2024-02-15T06:24:27;99955.34;;;13.73;100.00
23867;BME280;12114;53.404;-1.502;2024-02-15T06:27:12;99964.53;;;13.74;100.00
23867;BME280;12114;53.404;-1.502;2024-02-15T06:29:56;99955.75;;;13.75;100.00
23867;BME280;12114;53.404;-1.502;2024-02-15T06:32:59;99948.19;;;13.79;100.00
23867;BME280;12114;53.404;-1.502;2024-02-15T06:36:06;99934.25;;;13.83;100.00
23867;BME280;12114;53.404;-1.502;2024-02-15T06:39:09;99937.84;;;13.90;100.00
23867;BME280;12114;53.404;-1.502;2024-02-15T06:42:16;99931.84;;;13.85;100.00
23867;BME280;12114;53.404;-1.502;2024-02-15T06:45:02;99908.66;;;13.77;100.00
23867;BME280;12114;53.404;-1.502;2024-02-15T06:47:46;99927.03;;;13.78;100.00
23867;BME280;12114;53.404;-1.502;2024-02-15T06:50:30;99919.47;;;13.82;100.00
23867;BME280;12114;53.404;-1.502;2024-02-15T06:53:14;99929.81;;;13.78;100.00
23867;BME280;12114;53.404;-1.502;2024-02-15T06:55:58;99927.44;;;13.84;100.00
23867;BME280;12114;53.404;-1.502;2024-02-15T06:58:42;99906.72;;;13.85;100.00
23867;BME280;12114;53.404;-1.502;2024-02-15T07:01:26;99905.94;;;13.91;100.00
23867;BME280;12114;53.404;-1.502;2024-02-15T07:04:10;99913.13;;;13.89;100.00
23867;BME280;12114;53.404;-1.502;2024-02-15T07:06:54;99914.31;;;13.91;100.00
23867;BME280;12114;53.404;-1.502;2024-02-15T07:09:39;99909.53;;;13.88;100.00
23867;BME280;12114;53.404;-1.502;2024-02-15T07:12:23;99907.13;;;13.87;100.00
23867;BME280;12114;53.404;-1.502;2024-02-15T07:15:07;99913.50;;;13.87;100.00
23867;BME280;12114;53.404;-1.502;2024-02-15T07:17:52;99921.06;;;13.87;100.00
23867;BME280;12114;53.404;-1.502;2024-02-15T07:20:38;99919.13;;;14.01;100.00
23867;BME280;12114;53.404;-1.502;2024-02-15T07:23:22;99921.88;;;13.87;100.00
23867;BME280;12114;53.404;-1.502;2024-02-15T07:26:07;99918.31;;;13.94;100.00
23867;BME280;12114;53.404;-1.502;2024-02-15T07:28:52;99921.50;;;13.96;100.00
23867;BME280;12114;53.404;-1.502;2024-02-15T07:31:37;99910.72;;;13.91;100.00
23867;BME280;12114;53.404;-1.502;2024-02-15T07:34:22;99918.69;;;13.92;100.00
23867;BME280;12114;53.404;-1.502;2024-02-15T07:37:06;99908.75;;;13.95;100.00
23867;BME280;12114;53.404;-1.502;2024-02-15T07:39:50;99909.53;;;13.92;100.00
23867;BME280;12114;53.404;-1.502;2024-02-15T07:42:35;99915.13;;;13.95;100.00
23867;BME280;12114;53.404;-1.502;2024-02-15T07:45:18;99912.31;;;13.95;100.00
23867;BME280;12114;53.404;-1.502;2024-02-15T07:48:04;99916.75;;;14.03;100.00
23867;BME280;12114;53.404;-1.502;2024-02-15T07:50:48;99911.13;;;13.96;100.00
23867;BME280;12114;53.404;-1.502;2024-02-15T07:53:32;99909.97;;;14.01;100.00
23867;BME280;12114;53.404;-1.502;2024-02-15T07:56:17;99905.97;;;14.05;100.00
23867;BME280;12114;53.404;-1.502;2024-02-15T07:59:01;99907.97;;;14.05;100.00
23867;BME280;12114;53.404;-1.502;2024-02-15T08:01:44;99915.56;;;14.08;100.00
23867;BME280;12114;53.404;-1.502;2024-02-15T08:04:34;99913.19;;;14.06;100.00
23867;BME280;12114;53.404;-1.502;2024-02-15T08:07:24;99904.00;;;14.06;100.00
23867;BME280;12114;53.404;-1.502;2024-02-15T08:10:09;99906.38;;;14.04;100.00
23867;BME280;12114;53.404;-1.502;2024-02-15T08:12:56;99910.75;;;14.05;100.00
23867;BME280;12114;53.404;-1.502;2024-02-15T08:15:42;99911.16;;;14.03;100.00
23867;BME280;12114;53.404;-1.502;2024-02-15T08:18:28;99909.59;;;14.13;100.00
23867;BME280;12114;53.404;-1.502;2024-02-15T08:21:12;99912.00;;;14.18;100.00
23867;BME280;12114;53.404;-1.502;2024-02-15T08:23:56;99908.41;;;14.17;100.00
23867;BME280;12114;53.404;-1.502;2024-02-15T08:26:42;99906.84;;;14.27;100.00
23867;BME280;12114;53.404;-1.502;2024-02-15T08:29:26;99903.66;;;14.29;100.00
23867;BME280;12114;53.404;-1.502;2024-02-15T08:32:10;99913.66;;;14.33;100.00
23867;BME280;12114;53.404;-1.502;2024-02-15T08:34:55;99902.06;;;14.38;100.00
23867;BME280;12114;53.404;-1.502;2024-02-15T08:37:40;99898.91;;;14.47;100.00
23867;BME280;12114;53.404;-1.502;2024-02-15T08:40:25;99894.91;;;14.44;100.00
23867;BME280;12114;53.404;-1.502;2024-02-15T08:43:10;99891.72;;;14.53;100.00
23867;BME280;12114;53.404;-1.502;2024-02-15T08:45:54;99888.53;;;14.51;100.00
23867;BME280;12114;53.404;-1.502;2024-02-15T08:48:38;99887.34;;;14.59;100.00
23867;BME280;12114;53.404;-1.502;2024-02-15T08:51:22;99893.31;;;14.61;100.00
23867;BME280;12114;53.404;-1.502;2024-02-15T08:54:07;99880.16;;;14.65;100.00
23867;BME280;12114;53.404;-1.502;2024-02-15T08:56:52;99877.75;;;14.67;100.00
23867;BME280;12114;53.404;-1.502;2024-02-15T08:59:36;99878.13;;;14.72;100.00
23867;BME280;12114;53.404;-1.502;2024-02-15T09:02:20;99880.13;;;14.75;100.00
23867;BME280;12114;53.404;-1.502;2024-02-15T09:05:05;99880.13;;;14.75;100.00
23867;BME280;12114;53.404;-1.502;2024-02-15T09:07:49;99878.94;;;14.76;100.00
23867;BME280;12114;53.404;-1.502;2024-02-15T09:10:35;99878.53;;;14.78;100.00
23867;BME280;12114;53.404;-1.502;2024-02-15T09:13:26;99875.75;;;14.89;100.00
23867;BME280;12114;53.404;-1.502;2024-02-15T09:16:09;99860.56;;;14.79;100.00
23867;BME280;12114;53.404;-1.502;2024-02-15T09:18:55;99869.75;;;14.80;100.00
23867;BME280;12114;53.404;-1.502;2024-02-15T09:21:42;99863.75;;;14.77;100.00
23867;BME280;12114;53.404;-1.502;2024-02-15T09:24:26;99858.94;;;14.78;100.00
23867;BME280;12114;53.404;-1.502;2024-02-15T09:27:11;99852.16;;;14.86;100.00
23867;BME280;12114;53.404;-1.502;2024-02-15T09:29:56;99843.75;;;14.90;100.00
23867;BME280;12114;53.404;-1.502;2024-02-15T09:32:40;99861.75;;;14.92;100.00
23867;BME280;12114;53.404;-1.502;2024-02-15T09:35:24;99860.94;;;14.95;100.00
23867;BME280;12114;53.404;-1.502;2024-02-15T09:38:09;99855.75;;;15.01;100.00
23867;BME280;12114;53.404;-1.502;2024-02-15T09:40:53;99855.75;;;15.01;100.00
23867;BME280;12114;53.404;-1.502;2024-02-15T09:43:39;99850.94;;;15.01;100.00
23867;BME280;12114;53.404;-1.502;2024-02-15T09:46:23;99849.72;;;15.02;100.00
23867;BME280;12114;53.404;-1.502;2024-02-15T09:49:07;99844.94;;;15.06;100.00
23867;BME280;12114;53.404;-1.502;2024-02-15T09:51:52;99844.91;;;15.13;100.00
23867;BME280;12114;53.404;-1.502;2024-02-15T09:54:40;99847.69;;;15.17;100.00
23867;BME280;12114;53.404;-1.502;2024-02-15T09:57:29;99845.69;;;15.14;100.00
23867;BME280;12114;53.404;-1.502;2024-02-15T10:00:16;99846.50;;;15.21;100.00
23867;BME280;12114;53.404;-1.502;2024-02-15T10:03:02;99836.84;;;15.29;100.00
23867;BME280;12114;53.404;-1.502;2024-02-15T10:05:49;99843.25;;;15.26;100.00
23867;BME280;12114;53.404;-1.502;2024-02-15T10:08:33;99839.66;;;15.33;100.00
23867;BME280;12114;53.404;-1.502;2024-02-15T10:11:18;99832.81;;;15.41;100.00
23867;BME280;12114;53.404;-1.502;2024-02-15T10:14:10;99828.03;;;15.49;100.00
23867;BME280;12114;53.404;-1.502;2024-02-15T10:16:56;99839.63;;;15.47;100.00
23867;BME280;12114;53.404;-1.502;2024-02-15T10:19:40;99829.25;;;15.41;100.00
23867;BME280;12114;53.404;-1.502;2024-02-15T10:22:27;99830.81;;;15.42;100.00
23867;BME280;12114;53.404;-1.502;2024-02-15T10:25:12;99817.59;;;15.46;100.00
23867;BME280;12114;53.404;-1.502;2024-02-15T10:30:51;99820.41;;;15.53;100.00
23867;BME280;12114;53.404;-1.502;2024-02-15T10:33:36;99819.97;;;15.58;100.00
23867;BME280;12114;53.404;-1.502;2024-02-15T10:36:23;99817.50;;;15.77;100.00
23867;BME280;12114;53.404;-1.502;2024-02-15T10:39:14;99814.16;;;15.93;100.00
23867;BME280;12114;53.404;-1.502;2024-02-15T10:42:00;99805.84;;;15.86;100.00
23867;BME280;12114;53.404;-1.502;2024-02-15T10:44:45;99795.72;;;15.99;100.00
23867;BME280;12114;53.404;-1.502;2024-02-15T10:47:30;99796.44;;;16.14;100.00
23867;BME280;12114;53.404;-1.502;2024-02-15T10:50:15;99786.38;;;16.20;100.00
23867;BME280;12114;53.404;-1.502;2024-02-15T10:53:06;99790.56;;;16.46;100.00
23867;BME280;12114;53.404;-1.502;2024-02-15T10:56:10;99787.28;;;16.54;100.00
23867;BME280;12114;53.404;-1.502;2024-02-15T11:01:59;99784.44;;;16.61;90.12
23867;BME280;12114;53.404;-1.502;2024-02-15T11:04:44;99769.25;;;16.59;85.27
23867;BME280;12114;53.404;-1.502;2024-02-15T11:07:29;99764.38;;;16.63;80.34
23867;BME280;12114;53.404;-1.502;2024-02-15T11:10:14;99761.50;;;16.70;76.09
23867;BME280;12114;53.404;-1.502;2024-02-15T11:13:00;99759.06;;;16.72;74.52
23867;BME280;12114;53.404;-1.502;2024-02-15T11:15:46;99747.81;;;16.75;72.91
23867;BME280;12114;53.404;-1.502;2024-02-15T11:18:45;99750.28;;;16.70;63.83
23867;BME280;12114;53.404;-1.502;2024-02-15T11:22:31;99742.13;;;16.82;58.57
23867;BME280;12114;53.404;-1.502;2024-02-15T11:24:58;99739.00;;;16.77;58.22
23867;BME280;12114;53.404;-1.502;2024-02-15T11:27:43;99740.13;;;16.83;55.99
23867;BME280;12114;53.404;-1.502;2024-02-15T11:30:33;99735.47;;;17.03;57.79
23867;BME280;12114;53.404;-1.502;2024-02-15T11:33:31;99737.03;;;17.08;54.39
23867;BME280;12114;53.404;-1.502;2024-02-15T11:36:16;99729.91;;;17.00;47.75
23867;BME280;12114;53.404;-1.502;2024-02-15T11:39:39;99725.25;;;17.20;45.06
23867;BME280;12114;53.404;-1.502;2024-02-15T11:42:25;99714.53;;;17.11;36.63
23867;BME280;12114;53.404;-1.502;2024-02-15T11:45:09;99710.88;;;17.14;27.24
23867;BME280;12114;53.404;-1.502;2024-02-15T11:47:55;99703.59;;;17.20;28.51
23867;BME280;12114;53.404;-1.502;2024-02-15T11:50:40;99699.47;;;17.28;19.47
23867;BME280;12114;53.404;-1.502;2024-02-15T11:53:24;99698.13;;;17.36;15.18
23867;BME280;12114;53.404;-1.502;2024-02-15T11:56:08;99694.34;;;17.50;13.26
23867;BME280;12114;53.404;-1.502;2024-02-15T11:59:13;99675.34;;;17.61;0.00
23867;BME280;12114;53.404;-1.502;2024-02-15T12:02:13;99675.66;;;17.67;0.00
23867;BME280;12114;53.404;-1.502;2024-02-15T12:05:16;99672.38;;;17.72;0.00
23867;BME280;12114;53.404;-1.502;2024-02-15T12:08:19;99665.81;;;17.78;0.00
23867;BME280;12114;53.404;-1.502;2024-02-15T12:11:22;99656.97;;;17.80;0.00
23867;BME280;12114;53.404;-1.502;2024-02-15T12:14:25;99646.34;;;17.68;0.00
23867;BME280;12114;53.404;-1.502;2024-02-15T12:17:29;99652.00;;;17.64;0.00
23867;BME280;12114;53.404;-1.502;2024-02-15T12:20:32;99646.34;;;17.68;0.00
23867;BME280;12114;53.404;-1.502;2024-02-15T12:23:16;99643.41;;;17.75;0.00
23867;BME280;12114;53.404;-1.502;2024-02-15T12:26:01;99641.28;;;17.82;0.00
23867;BME280;12114;53.404;-1.502;2024-02-15T12:28:55;99649.03;;;17.98;0.00
23867;BME280;12114;53.404;-1.502;2024-02-15T12:31:40;99645.94;;;17.92;0.00
23867;BME280;12114;53.404;-1.502;2024-02-15T12:34:24;99641.03;;;17.96;0.00
23867;BME280;12114;53.404;-1.502;2024-02-15T12:37:08;99643.16;;;18.12;0.00
23867;BME280;12114;53.404;-1.502;2024-02-15T12:39:53;99635.28;;;18.03;0.00
23867;BME280;12114;53.404;-1.502;2024-02-15T12:42:40;99630.28;;;18.15;0.00
23867;BME280;12114;53.404;-1.502;2024-02-15T12:45:25;99615.47;;;18.11;0.00
23867;BME280;12114;53.404;-1.502;2024-02-15T12:48:11;99625.06;;;18.13;0.00
23867;BME280;12114;53.404;-1.502;2024-02-15T12:50:55;99613.13;;;18.29;0.00
23867;BME280;12114;53.404;-1.502;2024-02-15T12:53:40;99607.66;;;18.41;0.00
23867;BME280;12114;53.404;-1.502;2024-02-15T12:56:25;99600.91;;;18.39;0.00
23867;BME280;12114;53.404;-1.502;2024-02-15T12:59:12;99599.50;;;18.47;0.00
23867;BME280;12114;53.404;-1.502;2024-02-15T13:01:56;99606.13;;;18.37;0.00
23867;BME280;12114;53.404;-1.502;2024-02-15T13:04:40;99595.50;;;18.48;0.00
23867;BME280;12114;53.404;-1.502;2024-02-15T13:07:24;99599.91;;;18.49;0.00
23867;BME280;12114;53.404;-1.502;2024-02-15T13:10:09;99582.56;;;18.31;0.00
23867;BME280;12114;53.404;-1.502;2024-02-15T13:12:53;99576.94;;;18.31;0.00
23867;BME280;12114;53.404;-1.502;2024-02-15T13:15:37;99581.03;;;18.26;0.00
23867;BME280;12114;53.404;-1.502;2024-02-15T13:18:21;99580.66;;;18.24;0.00
23867;BME280;12114;53.404;-1.502;2024-02-15T13:21:05;99579.38;;;18.29;0.00
23867;BME280;12114;53.404;-1.502;2024-02-15T13:23:50;99574.63;;;18.26;0.00
23867;BME280;12114;53.404;-1.502;2024-02-15T13:26:35;99568.94;;;18.29;0.00
23867;BME280;12114;53.404;-1.502;2024-02-15T13:29:20;99561.06;;;18.40;0.00
23867;BME280;12114;53.404;-1.502;2024-02-15T13:32:05;99553.28;;;18.48;0.00
23867;BME280;12114;53.404;-1.502;2024-02-15T13:34:49;99540.44;;;18.47;0.00
23867;BME280;12114;53.404;-1.502;2024-02-15T13:37:46;99536.47;;;18.64;0.00
23867;BME280;12114;53.404;-1.502;2024-02-15T13:40:34;99532.09;;;18.63;0.00
23867;BME280;12114;53.404;-1.502;2024-02-15T13:43:19;99528.09;;;18.61;0.00
23867;BME280;12114;53.404;-1.502;2024-02-15T13:46:03;99506.19;;;18.52;0.00
23867;BME280;12114;53.404;-1.502;2024-02-15T13:48:48;99505.53;;;18.44;0.00
23867;BME280;12114;53.404;-1.502;2024-02-15T13:51:32;99515.34;;;18.36;0.00
23867;BME280;12114;53.404;-1.502;2024-02-15T13:54:18;99502.66;;;18.28;0.00
23867;BME280;12114;53.404;-1.502;2024-02-15T13:57:02;99492.63;;;18.27;0.00
23867;BME280;12114;53.404;-1.502;2024-02-15T13:59:47;99490.41;;;18.38;0.00
23867;BME280;12114;53.404;-1.502;2024-02-15T14:02:31;99482.66;;;18.42;0.00
23867;BME280;12114;53.404;-1.502;2024-02-15T14:05:16;99484.97;;;18.47;0.00
23867;BME280;12114;53.404;-1.502;2024-02-15T14:08:04;99470.69;;;18.58;0.00
23867;BME280;12114;53.404;-1.502;2024-02-15T14:10:58;99467.19;;;18.54;0.00
23867;BME280;12114;53.404;-1.502;2024-02-15T14:13:42;99467.63;;;18.33;0.00
23867;BME280;12114;53.404;-1.502;2024-02-15T14:16:26;99463.63;;;18.30;0.00
23867;BME280;12114;53.404;-1.502;2024-02-15T14:19:10;99476.94;;;18.30;0.00
23867;BME280;12114;53.404;-1.502;2024-02-15T14:21:56;99468.28;;;18.21;0.00
23867;BME280;12114;53.404;-1.502;2024-02-15T14:24:40;99460.41;;;18.32;0.00